Time;durP1;ratioP1;P1;durP2;ratioP2;P2;SDS_P1;SDS_P2;PMS_P1;PMS_P2;Temp;Humidity;BMP_temperature;BMP_pressure;BME280_temperature;BME280_humidity;BME280_pressure;Samples;Min_cycle;Max_cycle;Signal;HPM_P1;HPM_P2
2024/01/20 00:03:52;;;;;;;39.93;19.43;;;;;;;-1.47;46.06;100637.91;10263326;28;20229;-73
2024/01/20 00:08:55;;;;;;;33.07;18.43;;;;;;;-2.44;47.65;100763.69;10263437;28;20263;-74
2024/01/20 00:13:57;;;;;;;27.70;18.77;;;;;;;-1.47;46.29;100569.66;10266347;28;20317;-73
2024/01/20 00:18:59;;;;;;;30.33;17.07;;;;;;;-1.00;45.83;100474.13;10277739;28;20912;-73
2024/01/20 00:24:01;;;;;;;26.70;16.63;;;;;;;-0.94;45.85;100522.84;10271430;28;20238;-73
2024/01/20 00:29:03;;;;;;;25.23;16.47;;;;;;;-0.24;45.13;100398.50;10280599;28;20239;-74
2024/01/20 00:34:04;;;;;;;22.67;15.30;;;;;;;-0.74;43.74;100668.81;10267120;28;20475;-73
2024/01/20 00:39:06;;;;;;;21.10;14.70;;;;;;;-1.57;44.93;100692.69;10272409;28;20238;-74
2024/01/20 00:44:08;;;;;;;24.80;14.50;;;;;;;-1.25;44.95;100634.94;10269812;28;20344;-73
2024/01/20 00:49:10;;;;;;;19.97;13.33;;;;;;;-1.03;44.28;100667.88;10283979;28;20628;-74
2024/01/20 00:54:11;;;;;;;20.30;14.33;;;;;;;-0.41;44.33;100496.03;10277835;28;20691;-74
2024/01/20 00:59:13;;;;;;;18.90;13.00;;;;;;;0.57;43.06;100386.16;10269578;28;20452;-74
2024/01/20 01:04:15;;;;;;;22.43;14.27;;;;;;;1.09;41.22;100458.16;10271296;28;20276;-74
2024/01/20 01:09:16;;;;;;;19.80;12.67;;;;;;;0.06;41.27;100718.53;10266684;28;20248;-74
2024/01/20 01:14:18;;;;;;;18.93;12.30;;;;;;;0.20;41.20;100713.25;10273403;28;20232;-74
2024/01/20 01:19:20;;;;;;;17.90;12.97;;;;;;;0.57;41.15;100602.97;10276042;28;20248;-73
2024/01/20 01:24:22;;;;;;;19.63;13.00;;;;;;;1.43;40.69;100457.50;10280645;28;20281;-73
2024/01/20 01:29:23;;;;;;;16.60;11.40;;;;;;;0.50;40.52;100738.63;10254736;28;20249;-73
2024/01/20 01:34:25;;;;;;;15.87;10.63;;;;;;;0.04;41.55;100773.88;10254216;28;20236;-73
2024/01/20 01:39:27;;;;;;;21.13;11.50;;;;;;;-0.01;40.58;100796.13;10285029;28;20249;-73
2024/01/20 01:44:28;;;;;;;14.70;10.60;;;;;;;0.21;41.05;100682.53;10260044;28;20300;-73
2024/01/20 01:49:30;;;;;;;15.23;11.20;;;;;;;-1.49;42.86;100952.22;10255224;28;20236;-73
2024/01/20 01:54:32;;;;;;;15.53;10.93;;;;;;;-1.34;43.80;100821.91;10288346;28;20604;-73
2024/01/20 01:59:34;;;;;;;19.97;12.50;;;;;;;-1.00;44.56;100686.09;10275826;28;20273;-73
2024/01/20 02:04:36;;;;;;;15.60;12.60;;;;;;;-0.47;42.98;100619.06;10271399;28;20723;-72
2024/01/20 02:09:38;;;;;;;15.50;11.87;;;;;;;-1.69;44.82;100868.38;10272434;28;20243;-73
2024/01/20 02:14:42;;;;;;;16.00;11.33;;;;;;;-1.62;44.60;100718.34;10271923;28;20905;-72
2024/01/20 02:19:45;;;;;;;16.23;11.47;;;;;;;-2.07;45.74;100779.34;10276783;28;20267;-72
2024/01/20 02:24:48;;;;;;;17.10;11.63;;;;;;;-2.57;46.52;100833.34;10273472;28;20333;-73
2024/01/20 02:29:50;;;;;;;13.93;10.80;;;;;;;-1.58;44.83;100648.16;10269952;28;20301;-71
2024/01/20 02:34:51;;;;;;;15.90;11.60;;;;;;;-1.83;45.45;100682.78;10274494;28;20231;-72
2024/01/20 02:39:53;;;;;;;16.83;11.10;;;;;;;-0.21;43.24;100471.13;10274836;28;20253;-72
2024/01/20 02:44:55;;;;;;;14.53;11.17;;;;;;;-0.29;42.58;100522.41;10273973;28;20340;-72
2024/01/20 02:49:56;;;;;;;14.97;10.67;;;;;;;1.23;40.36;100468.56;10275237;28;20697;-73
2024/01/20 02:54:58;;;;;;;15.80;10.53;;;;;;;-0.16;40.45;100787.38;10274684;28;20234;-72
2024/01/20 02:59:59;;;;;;;14.60;10.53;;;;;;;-0.53;44.21;100602.81;10272690;28;20227;-72
2024/01/20 03:05:01;;;;;;;14.07;9.70;;;;;;;1.22;39.91;100570.56;10270840;28;20773;-73
2024/01/20 03:10:03;;;;;;;13.97;10.93;;;;;;;-1.66;41.33;101020.47;10271184;28;20616;-72
2024/01/20 03:15:07;;;;;;;16.03;10.53;;;;;;;-1.18;42.43;100756.25;10269949;28;20605;-72
2024/01/20 03:20:09;;;;;;;14.80;10.57;;;;;;;-1.59;43.16;100819.72;10270231;28;20521;-72
2024/01/20 03:25:11;;;;;;;16.30;10.80;;;;;;;-1.59;45.28;100670.94;10275416;28;20230;-72
2024/01/20 03:30:12;;;;;;;15.80;10.20;;;;;;;-1.55;44.46;100701.38;10272949;28;20253;-71
2024/01/20 03:35:14;;;;;;;18.30;11.47;;;;;;;-0.68;43.62;100568.56;10266831;28;20236;-72
2024/01/20 03:40:16;;;;;;;13.93;9.57;;;;;;;-2.32;44.83;100956.25;10279084;28;20252;-72
2024/01/20 03:45:17;;;;;;;16.37;10.20;;;;;;;-2.82;46.46;100881.66;10264006;28;20349;-71
2024/01/20 03:50:19;;;;;;;13.83;9.80;;;;;;;-2.51;45.16;100827.81;10273822;28;20792;-72
2024/01/20 03:55:21;;;;;;;14.47;10.57;;;;;;;-1.27;43.39;100613.16;10279868;28;20323;-73
2024/01/20 04:00:23;;;;;;;14.23;10.00;;;;;;;-2.02;44.46;100787.81;10275795;28;20345;-74
2024/01/20 04:05:25;;;;;;;14.63;9.83;;;;;;;-1.34;43.65;100651.22;10273360;28;20233;-74
2024/01/20 04:10:27;;;;;;;14.37;10.53;;;;;;;-2.70;46.44;100831.31;10277991;28;20418;-74
2024/01/20 04:15:29;;;;;;;14.97;10.13;;;;;;;-2.55;45.04;100881.31;10284823;28;20263;-74
2024/01/20 04:20:31;;;;;;;15.77;9.93;;;;;;;-1.59;43.59;100726.06;10251905;28;20291;-73
2024/01/20 04:25:32;;;;;;;11.83;8.97;;;;;;;-1.74;43.60;100776.75;10264237;28;20500;-74
2024/01/20 04:30:34;;;;;;;14.17;10.57;;;;;;;-1.44;43.22;100710.44;10274840;28;20246;-72
2024/01/20 04:35:36;;;;;;;15.40;9.90;;;;;;;-0.30;41.35;100557.56;10250010;28;20255;-73
2024/01/20 04:40:37;;;;;;;13.53;10.27;;;;;;;-0.46;40.16;100809.25;10258832;28;20233;-71
2024/01/20 04:45:39;;;;;;;17.50;9.77;;;;;;;-1.23;42.33;100756.50;10267391;28;20241;-71
2024/01/20 04:50:41;;;;;;;15.77;11.03;;;;;;;-1.64;44.75;100714.97;10274820;28;20241;-71
2024/01/20 04:55:42;;;;;;;13.50;10.37;;;;;;;-1.45;43.97;100703.47;10270754;28;20256;-74
2024/01/20 05:00:44;;;;;;;14.93;8.97;;;;;;;-0.37;41.93;100600.94;10276711;28;20712;-72
2024/01/20 05:05:46;;;;;;;11.67;9.10;;;;;;;-1.09;43.81;100648.06;10269394;28;20617;-72
2024/01/20 05:10:48;;;;;;;14.03;9.10;;;;;;;1.19;39.25;100601.56;10270161;28;20688;-73
2024/01/20 05:15:50;;;;;;;13.30;9.03;;;;;;;-1.92;43.02;100989.31;10273760;28;20233;-72
2024/01/20 05:20:51;;;;;;;12.87;9.37;;;;;;;-2.55;44.58;100965.19;10281766;28;20237;-73
2024/01/20 05:25:53;;;;;;;15.20;10.30;;;;;;;-2.53;45.73;100871.59;10280555;28;20587;-73
2024/01/20 05:30:54;;;;;;;11.37;9.47;;;;;;;-2.31;45.37;100711.47;10289214;28;20239;-73
2024/01/20 05:35:57;;;;;;;13.63;10.57;;;;;;;-2.74;44.83;100904.91;10275703;28;20683;-73
2024/01/20 05:40:59;;;;;;;17.27;10.17;;;;;;;-0.50;41.66;100526.34;10246275;28;20273;-72
2024/01/20 05:46:05;;;;;;;12.33;9.77;;;;;;;-1.50;41.23;100965.41;10259218;28;20257;-73
2024/01/20 05:51:07;;;;;;;15.90;10.40;;;;;;;0.44;38.88;100675.81;10274441;28;20725;-71
2024/01/20 05:56:09;;;;;;;11.37;8.80;;;;;;;-0.29;39.38;100750.41;10265737;28;20320;-73
2024/01/20 06:01:10;;;;;;;13.67;9.83;;;;;;;-1.43;40.74;100995.69;10263375;28;20711;-71
2024/01/20 06:06:12;;;;;;;12.80;9.53;;;;;;;-1.98;40.81;101127.81;10280028;28;20237;-73
2024/01/20 06:11:14;;;;;;;11.33;9.53;;;;;;;-2.54;42.17;101105.78;10241472;28;20321;-72
2024/01/20 06:16:16;;;;;;;16.50;11.87;;;;;;;-3.36;43.91;101055.97;10270521;28;20348;-72
2024/01/20 06:21:22;;;;;;;15.93;11.97;;;;;;;-1.89;43.90;100691.81;10275019;28;20240;-72
2024/01/20 06:26:23;;;;;;;15.67;10.93;;;;;;;1.23;39.30;100587.22;10283597;28;20233;-73
2024/01/20 06:31:27;;;;;;;14.47;9.50;;;;;;;-0.67;38.68;101063.66;10242527;28;20270;-73
2024/01/20 06:36:28;;;;;;;15.20;8.53;;;;;;;-1.07;40.32;100926.47;10227910;28;20237;-71
2024/01/20 06:41:31;;;;;;;13.13;10.00;;;;;;;0.12;39.48;100790.06;10229131;28;20899;-72
2024/01/20 06:46:33;;;;;;;14.53;8.60;;;;;;;0.23;38.22;100888.63;10235727;28;20302;-72
2024/01/20 06:51:34;;;;;;;17.07;12.77;;;;;;;-0.00;37.45;100939.97;10231142;28;20245;-73
2024/01/20 06:56:36;;;;;;;21.63;14.10;;;;;;;0.39;37.72;100820.91;10232863;28;20333;-73
2024/01/20 07:01:38;;;;;;;13.47;11.07;;;;;;;0.61;37.14;100828.41;10225425;28;20257;-73
2024/01/20 07:06:39;;;;;;;12.20;9.47;;;;;;;-0.98;39.99;100983.78;10242105;28;20819;-73
2024/01/20 07:11:41;;;;;;;13.37;9.33;;;;;;;-2.79;42.73;101022.19;10225633;28;20581;-72
2024/01/20 07:16:42;;;;;;;15.33;11.33;;;;;;;-1.79;40.36;101007.94;10229397;28;20244;-75
2024/01/20 07:21:44;;;;;;;14.70;10.10;;;;;;;-0.29;39.79;100645.19;10238984;28;20244;-73
2024/01/20 07:26:46;;;;;;;18.27;12.83;;;;;;;-0.93;38.99;100874.00;10237520;28;20454;-73
2024/01/20 07:31:48;;;;;;;13.93;10.97;;;;;;;-2.15;39.47;101183.66;10238918;28;20601;-73
2024/01/20 07:36:49;;;;;;;19.67;13.70;;;;;;;-0.75;38.48;100908.97;10240453;28;20535;-73
2024/01/20 07:41:51;;;;;;;22.97;16.40;;;;;;;-0.15;37.67;100834.63;10279953;28;20244;-73
2024/01/20 07:46:52;;;;;;;28.17;20.60;;;;;;;-0.57;38.17;100903.66;10275837;28;20753;-71
2024/01/20 07:51:54;;;;;;;26.03;18.63;;;;;;;-0.45;37.53;100951.19;10277077;28;20282;-73
2024/01/20 07:56:56;;;;;;;27.73;19.27;;;;;;;0.25;37.13;100818.28;10280007;28;20294;-73
2024/01/20 08:01:57;;;;;;;26.03;16.90;;;;;;;-0.29;37.47;100979.28;10272053;28;20245;-73
2024/01/20 08:06:59;;;;;;;17.30;13.83;;;;;;;0.55;37.19;100805.06;10272853;28;20244;-72
2024/01/20 08:12:01;;;;;;;20.37;12.70;;;;;;;-0.82;37.96;101075.84;10278874;28;20246;-73
2024/01/20 08:17:03;;;;;;;22.77;13.67;;;;;;;-2.53;39.11;101408.97;10277130;28;20260;-73
2024/01/20 08:22:06;;;;;;;15.73;11.47;;;;;;;-0.62;38.86;100930.16;10275417;28;20810;-71
2024/01/20 08:27:08;;;;;;;14.83;10.73;;;;;;;-0.80;38.34;101127.38;10274419;28;20267;-73
2024/01/20 08:32:09;;;;;;;17.37;10.90;;;;;;;-0.03;37.67;100938.34;10268760;28;20293;-73
2024/01/20 08:37:11;;;;;;;17.77;12.77;;;;;;;0.23;38.14;100876.31;10273281;28;20234;-75
2024/01/20 08:42:13;;;;;;;17.27;12.63;;;;;;;-0.73;38.80;101077.97;10275971;28;20205;-72
2024/01/20 08:47:15;;;;;;;20.13;11.47;;;;;;;-2.63;42.60;101096.56;10271639;28;20235;-72
2024/01/20 08:52:20;;;;;;;14.40;10.87;;;;;;;-1.92;41.10;101141.50;10276594;28;20361;-72
2024/01/20 08:57:22;;;;;;;16.53;10.80;;;;;;;-0.48;39.84;100858.47;10280954;28;20228;-72
2024/01/20 09:02:24;;;;;;;14.60;10.20;;;;;;;-0.78;39.91;101058.97;10271342;28;20214;-73
2024/01/20 09:07:25;;;;;;;21.00;12.07;;;;;;;-1.70;41.09;101192.13;10273673;28;20278;-73
2024/01/20 09:12:27;;;;;;;21.30;12.87;;;;;;;-0.58;40.85;100978.19;10268917;28;20752;-72
2024/01/20 09:17:29;;;;;;;14.77;11.43;;;;;;;-2.19;41.58;101307.97;10269643;28;20613;-73
2024/01/20 09:22:30;;;;;;;17.67;11.00;;;;;;;-2.49;43.10;101162.34;10276129;28;20239;-72
2024/01/20 09:27:32;;;;;;;19.60;10.73;;;;;;;-2.38;42.98;101116.47;10271176;28;20245;-73
2024/01/20 09:32:34;;;;;;;21.53;13.97;;;;;;;-2.24;42.10;101147.31;10276627;28;20235;-72
2024/01/20 09:37:38;;;;;;;19.10;13.60;;;;;;;-2.15;42.16;101097.94;10272742;28;20276;-72
2024/01/20 09:42:40;;;;;;;15.63;13.10;;;;;;;-0.23;40.14;100839.50;10271915;28;20353;-72
2024/01/20 09:47:42;;;;;;;16.90;12.23;;;;;;;-3.24;44.21;101131.38;10270869;28;20330;-72
2024/01/20 09:53:00;;;;;;;15.13;9.80;;;;;;;-4.01;45.96;101231.09;10286495;28;20250;-72
2024/01/20 09:58:03;;;;;;;13.07;9.80;;;;;;;-3.57;45.76;101157.13;10276473;28;20241;-72
2024/01/20 10:03:07;;;;;;;10.67;9.13;;;;;;;-3.61;45.75;101198.25;10270216;28;20242;-72
2024/01/20 10:08:12;;;;;;;13.07;9.83;;;;;;;-3.02;46.22;101010.91;10271731;28;20660;-72
2024/01/20 10:13:14;;;;;;;17.33;9.83;;;;;;;-1.98;45.63;100784.97;10268826;28;20324;-71
2024/01/20 10:18:16;;;;;;;16.00;11.97;;;;;;;-1.69;45.04;100915.63;10265915;28;20621;-71
2024/01/20 10:23:17;;;;;;;18.87;12.40;;;;;;;-1.56;44.86;101040.09;10270278;28;20661;-71
2024/01/20 10:28:22;;;;;;;15.83;12.37;;;;;;;-0.71;43.67;101076.09;10276393;28;20231;-70
2024/01/20 10:33:24;;;;;;;16.70;12.27;;;;;;;-1.01;44.82;101100.41;10266886;28;20249;-70
2024/01/20 10:38:28;;;;;;;17.23;11.43;;;;;;;0.49;44.70;100706.19;10263252;28;20945;-70
2024/01/20 10:43:37;;;;;;;16.10;13.33;;;;;;;-0.83;45.01;101085.47;10263739;28;20273;-71
2024/01/20 10:48:46;;;;;;;16.37;11.83;;;;;;;0.12;43.87;100892.72;10264253;28;20253;-70
2024/01/20 10:53:49;;;;;;;17.07;11.13;;;;;;;0.91;42.80;100990.00;10272259;28;20236;-72
2024/01/20 10:59:01;;;;;;;16.37;11.47;;;;;;;0.93;43.60;100885.31;10263348;28;20278;-71
2024/01/20 11:06:23;;;;;;;17.33;13.20;;;;;;;-0.39;47.27;100907.06;10448178;27;20548;-69
2024/01/20 11:11:29;;;;;;;17.97;12.87;;;;;;;0.89;44.94;100802.97;10459098;28;20313;-70
2024/01/20 11:16:33;;;;;;;21.37;13.53;;;;;;;0.90;44.62;100867.91;10473892;28;20250;-69
2024/01/20 11:21:35;;;;;;;18.13;13.20;;;;;;;0.90;44.53;100906.56;10432253;28;20242;-70
2024/01/20 11:26:37;;;;;;;16.23;11.37;;;;;;;0.58;45.96;100836.47;10405313;28;20245;-70
2024/01/20 11:31:46;;;;;;;17.63;12.33;;;;;;;0.44;45.91;100892.63;10423764;28;20239;-70
2024/01/20 11:36:48;;;;;;;19.37;14.30;;;;;;;1.58;44.14;100790.63;10459663;28;20271;-70
2024/01/20 11:42:04;;;;;;;17.10;11.90;;;;;;;1.59;44.45;100762.44;10461882;28;20289;-70
2024/01/20 11:47:06;;;;;;;25.10;17.33;;;;;;;1.74;43.92;100819.50;10468375;28;20507;-70
2024/01/20 11:52:08;;;;;;;20.10;13.53;;;;;;;0.07;45.92;101022.88;10462637;28;20248;-69
2024/01/20 11:57:09;;;;;;;20.10;12.77;;;;;;;2.21;43.93;100716.06;10466853;28;20228;-69
2024/01/20 12:02:11;;;;;;;18.13;13.33;;;;;;;-0.30;46.09;101086.28;10457849;28;20239;-72
2024/01/20 12:07:13;;;;;;;20.33;14.53;;;;;;;0.95;46.10;100799.06;10462472;28;20658;-70
2024/01/20 12:12:16;;;;;;;18.73;13.80;;;;;;;-0.99;47.60;101122.22;10452523;28;20685;-70
2024/01/20 12:17:22;;;;;;;20.17;15.50;;;;;;;1.05;45.76;100806.31;10435473;28;20324;-71
2024/01/20 12:22:24;;;;;;;27.43;19.20;;;;;;;1.25;44.76;100928.13;10436943;28;20320;-71
2024/01/20 12:27:26;;;;;;;24.10;16.87;;;;;;;2.08;43.92;100838.38;10437554;28;20484;-71
2024/01/20 12:32:28;;;;;;;20.20;13.80;;;;;;;1.51;45.96;100776.16;10434473;28;20233;-71
2024/01/20 12:37:30;;;;;;;22.17;15.53;;;;;;;-0.37;47.56;101069.09;10438457;28;20750;-71
2024/01/20 12:42:32;;;;;;;20.50;14.73;;;;;;;1.12;46.18;100816.47;10433258;28;20317;-71
2024/01/20 12:47:34;;;;;;;21.87;15.73;;;;;;;1.27;46.06;100791.78;10431600;28;20249;-70
2024/01/20 12:52:36;;;;;;;23.53;13.10;;;;;;;0.66;47.11;100888.69;10435988;28;20232;-72
2024/01/20 12:57:38;;;;;;;17.70;12.83;;;;;;;0.83;46.52;100904.34;10427619;28;20664;-71
2024/01/20 13:02:40;;;;;;;20.40;14.93;;;;;;;1.48;45.81;100818.56;10436243;28;20241;-71
2024/01/20 13:07:42;;;;;;;17.53;12.00;;;;;;;2.22;45.02;100680.78;10429882;28;20239;-70
2024/01/20 13:12:44;;;;;;;16.97;13.53;;;;;;;1.83;45.71;100774.94;10433992;28;20234;-73
2024/01/20 13:17:46;;;;;;;20.53;14.53;;;;;;;2.52;43.80;100891.78;10431348;28;20254;-73
2024/01/20 13:22:48;;;;;;;15.97;11.67;;;;;;;1.33;45.39;101081.50;10429708;28;20240;-72
2024/01/20 13:27:49;;;;;;;17.30;11.40;;;;;;;0.54;47.00;100985.09;10432486;28;20658;-71
2024/01/20 13:32:51;;;;;;;17.90;12.43;;;;;;;2.69;44.43;100763.78;10426400;28;20620;-73
2024/01/20 13:37:53;;;;;;;22.63;14.87;;;;;;;2.95;44.21;100769.84;10435293;28;20681;-71
2024/01/20 13:42:54;;;;;;;16.63;11.67;;;;;;;2.06;45.14;100919.47;10430438;28;20305;-71
2024/01/20 13:47:56;;;;;;;16.50;12.73;;;;;;;1.87;44.07;101072.09;10437374;28;20240;-72
2024/01/20 13:52:58;;;;;;;16.13;12.00;;;;;;;2.33;44.82;100908.91;10432916;28;20241;-71
2024/01/20 13:58:00;;;;;;;18.07;13.90;;;;;;;3.64;43.18;100796.53;10431021;28;20236;-71
2024/01/20 14:03:01;;;;;;;21.20;15.80;;;;;;;1.63;45.59;101024.34;10425445;28;20239;-71
2024/01/20 14:08:04;;;;;;;21.47;15.30;;;;;;;1.88;46.21;100899.59;10433134;28;20295;-71
2024/01/20 14:13:05;;;;;;;22.00;14.83;;;;;;;2.48;45.31;100879.72;10435797;28;20348;-71
2024/01/20 14:18:08;;;;;;;21.43;15.70;;;;;;;1.80;47.35;100919.38;10431370;28;20232;-73
2024/01/20 14:23:10;;;;;;;21.23;15.73;;;;;;;3.39;45.12;100715.47;10426504;28;20244;-72
2024/01/20 14:28:12;;;;;;;25.07;18.33;;;;;;;1.85;46.04;101015.94;10432779;28;20236;-69
2024/01/20 14:33:14;;;;;;;25.27;18.07;;;;;;;2.11;46.83;100859.31;10421954;28;20656;-73
2024/01/20 14:38:16;;;;;;;25.03;18.67;;;;;;;1.88;46.28;101015.75;10427342;28;20600;-74
2024/01/20 14:43:18;;;;;;;21.60;17.20;;;;;;;2.45;46.68;100827.09;10426734;28;20739;-73
2024/01/20 14:48:19;;;;;;;26.97;18.57;;;;;;;2.94;46.04;100821.06;10431405;28;20258;-72
2024/01/20 14:53:23;;;;;;;29.57;20.60;;;;;;;2.40;46.49;100819.50;10428716;28;20228;-74
2024/01/20 14:58:25;;;;;;;29.53;21.03;;;;;;;1.51;47.12;101018.88;10432120;28;20334;-74
2024/01/20 15:03:27;;;;;;;29.73;21.07;;;;;;;2.08;46.34;100959.84;10428705;28;20244;-72
2024/01/20 15:08:29;;;;;;;28.83;20.20;;;;;;;2.44;46.11;100873.81;10437599;28;20271;-71
2024/01/20 15:13:31;;;;;;;28.20;19.73;;;;;;;1.90;46.66;100932.00;10429335;28;20228;-71
2024/01/20 15:18:32;;;;;;;32.30;20.73;;;;;;;1.40;47.41;100958.84;10429822;28;20465;-72
2024/01/20 15:23:34;;;;;;;28.40;21.13;;;;;;;2.33;46.52;100762.72;10428744;28;20315;-71
2024/01/20 15:28:36;;;;;;;30.60;20.43;;;;;;;0.88;48.25;100975.19;10426440;28;22107;-71
2024/01/20 15:33:38;;;;;;;31.03;20.43;;;;;;;1.78;46.25;100918.66;10432101;28;20610;-71
2024/01/20 15:38:39;;;;;;;34.70;22.30;;;;;;;1.24;46.94;100980.03;10423364;28;20417;-69
2024/01/20 15:43:41;;;;;;;30.70;23.07;;;;;;;1.78;45.91;100857.94;10421108;28;20330;-68
2024/01/20 15:48:44;;;;;;;32.97;22.03;;;;;;;2.85;45.05;100679.75;10432078;28;20440;-69
2024/01/20 15:53:45;;;;;;;32.27;23.00;;;;;;;1.92;45.44;100945.94;10436990;28;20509;-69
2024/01/20 15:58:47;;;;;;;29.23;21.47;;;;;;;1.74;45.63;100938.28;10433276;28;20235;-72
2024/01/20 16:03:49;;;;;;;32.37;21.23;;;;;;;1.82;45.70;100879.69;10439300;28;20320;-69
2024/01/20 16:08:56;;;;;;;28.80;20.33;;;;;;;2.64;44.69;100750.03;10436529;28;20233;-71
2024/01/20 16:13:57;;;;;;;28.77;20.67;;;;;;;1.60;45.94;100911.91;10422117;28;20253;-73
2024/01/20 16:18:59;;;;;;;40.70;21.57;;;;;;;1.65;46.07;100903.72;10434202;28;20236;-73
2024/01/20 16:24:01;;;;;;;30.30;20.53;;;;;;;1.27;46.92;100889.34;10430944;28;20749;-72
2024/01/20 16:29:03;;;;;;;30.90;21.43;;;;;;;1.38;45.98;100946.72;10438675;28;20253;-75
2024/01/20 16:34:05;;;;;;;34.50;21.53;;;;;;;1.00;47.69;100855.84;10438411;28;20289;-75
2024/01/20 16:39:07;;;;;;;31.17;20.53;;;;;;;0.52;48.18;100886.06;10436550;28;20236;-69
2024/01/20 16:44:10;;;;;;;31.43;21.13;;;;;;;1.65;46.18;100740.94;10430605;28;20617;-74
2024/01/20 16:49:12;;;;;;;33.40;20.60;;;;;;;0.94;47.02;100868.56;10425407;28;20596;-75
2024/01/20 16:54:14;;;;;;;28.33;21.50;;;;;;;-0.24;48.96;100982.50;10395334;28;20238;-72
2024/01/20 16:59:16;;;;;;;34.10;24.67;;;;;;;-0.51;48.96;101008.53;10414264;28;20227;-70
2024/01/20 17:04:18;;;;;;;43.20;27.13;;;;;;;-0.52;48.84;100965.59;10432827;28;20231;-75
2024/01/20 17:09:20;;;;;;;38.23;26.50;;;;;;;-0.07;47.99;100892.09;10437890;28;20246;-73
2024/01/20 17:14:24;;;;;;;37.20;25.17;;;;;;;0.09;47.77;100879.75;10429956;28;20713;-72
2024/01/20 17:19:30;;;;;;;39.67;25.37;;;;;;;0.20;47.43;100884.38;10431182;28;20232;-73
2024/01/20 17:24:33;;;;;;;37.93;25.90;;;;;;;-0.45;48.60;100979.28;10429377;28;20234;-75
2024/01/20 17:29:35;;;;;;;46.33;28.33;;;;;;;0.79;46.65;100723.63;10428190;28;20243;-77
2024/01/20 17:34:36;;;;;;;43.27;28.27;;;;;;;0.09;47.43;100879.75;10429186;28;20823;-76
2024/01/20 17:39:39;;;;;;;39.77;26.80;;;;;;;-0.38;48.50;100925.41;10430211;28;20330;-75
2024/01/20 17:44:40;;;;;;;42.83;26.27;;;;;;;0.23;47.75;100763.09;10429651;28;20301;-72
2024/01/20 17:49:42;;;;;;;45.37;29.33;;;;;;;0.03;49.08;100758.19;10425531;28;20760;-72
2024/01/20 17:54:44;;;;;;;45.60;27.80;;;;;;;-0.83;48.86;100988.22;10424213;28;20304;-72
2024/01/20 17:59:46;;;;;;;40.07;26.67;;;;;;;-0.53;48.61;100915.72;10429946;28;20296;-76
2024/01/20 18:04:47;;;;;;;40.73;25.70;;;;;;;-0.01;47.74;100822.44;10426444;28;20281;-77
2024/01/20 18:09:49;;;;;;;39.87;26.83;;;;;;;-0.38;48.61;100858.78;10430753;28;20706;-77
2024/01/20 18:14:51;;;;;;;45.83;28.47;;;;;;;-0.47;47.82;100910.97;10429643;28;20257;-75
2024/01/20 18:19:53;;;;;;;46.13;27.07;;;;;;;-0.17;47.70;100847.03;10431079;28;20236;-76
2024/01/20 18:24:55;;;;;;;38.23;24.93;;;;;;;0.09;47.30;100795.50;10422339;28;20231;-77
2024/01/20 18:29:56;;;;;;;32.60;24.13;;;;;;;-1.17;49.24;100949.72;10430774;28;20257;-77
2024/01/20 18:34:58;;;;;;;37.37;24.60;;;;;;;-0.90;49.01;100908.00;10427607;28;20319;-77
2024/01/20 18:40:00;;;;;;;42.20;24.23;;;;;;;-0.25;48.25;100765.94;10427160;28;20284;-77
2024/01/20 18:45:01;;;;;;;41.37;26.23;;;;;;;-0.76;47.23;100988.75;10419758;28;20234;-76
2024/01/20 18:50:03;;;;;;;35.57;23.27;;;;;;;0.24;47.18;100745.50;10433379;28;20591;-76
2024/01/20 18:55:05;;;;;;;42.17;24.13;;;;;;;0.06;46.63;100837.81;10430584;28;20672;-76
2024/01/20 19:00:07;;;;;;;36.70;24.17;;;;;;;-0.31;47.30;100875.94;10435993;28;20228;-76
2024/01/20 19:05:09;;;;;;;38.10;26.87;;;;;;;0.31;45.85;100810.03;10425804;28;20228;-76
2024/01/20 19:10:11;;;;;;;41.33;25.60;;;;;;;-0.07;46.09;100898.19;10426006;28;20246;-76
2024/01/20 19:15:13;;;;;;;45.67;27.27;;;;;;;-0.47;47.11;100923.25;10422906;28;20369;-75
2024/01/20 19:20:15;;;;;;;38.63;25.10;;;;;;;1.20;45.61;100577.75;10430843;28;22838;-77
2024/01/20 19:25:17;;;;;;;40.00;25.93;;;;;;;0.67;45.25;100774.47;10429123;28;20772;-78
2024/01/20 19:30:19;;;;;;;38.97;24.80;;;;;;;0.54;44.90;100834.97;10443466;28;20281;-77
2024/01/20 19:35:23;;;;;;;39.53;23.87;;;;;;;-0.45;46.16;101014.31;10417698;28;20221;-72
2024/01/20 19:40:24;;;;;;;40.93;25.70;;;;;;;-0.31;46.06;100983.78;10416666;28;20232;-72
2024/01/20 19:45:26;;;;;;;36.47;25.07;;;;;;;-1.10;46.81;101128.91;10413200;28;20243;-67
2024/01/20 19:50:28;;;;;;;40.00;26.93;;;;;;;0.40;45.11;100819.16;10429054;28;20316;-73
2024/01/20 19:55:30;;;;;;;41.77;26.50;;;;;;;0.22;45.48;100840.38;10419627;28;20231;-73
2024/01/20 20:00:31;;;;;;;39.27;25.77;;;;;;;0.10;44.35;101022.72;10429128;28;20281;-75
2024/01/20 20:05:33;;;;;;;41.70;26.67;;;;;;;1.14;42.88;100856.78;10427525;28;20236;-73
2024/01/20 20:10:35;;;;;;;41.67;24.80;;;;;;;2.23;41.59;100777.53;10421199;28;20327;-71
2024/01/20 20:15:37;;;;;;;44.10;28.03;;;;;;;2.43;40.84;100824.56;10419771;28;20324;-74
2024/01/20 20:20:39;;;;;;;43.37;27.03;;;;;;;1.80;41.12;101043.44;10430859;28;20572;-74
2024/01/20 20:25:40;;;;;;;38.67;26.20;;;;;;;2.48;40.08;100941.34;10424608;28;20680;-75
2024/01/20 20:30:42;;;;;;;36.93;24.43;;;;;;;1.58;41.49;100993.81;10427008;28;20242;-73
2024/01/20 20:35:44;;;;;;;36.73;23.73;;;;;;;0.95;43.34;100846.53;10423520;28;20227;-74
2024/01/20 20:40:47;;;;;;;37.03;24.83;;;;;;;1.51;41.66;100902.78;10418243;28;20242;-74
2024/01/20 20:45:49;;;;;;;39.47;25.63;;;;;;;2.14;40.96;100800.13;10415725;28;20669;-74
2024/01/20 20:50:51;;;;;;;38.80;24.40;;;;;;;-1.36;44.25;101267.59;10422285;28;20242;-73
2024/01/20 20:55:52;;;;;;;40.47;23.73;;;;;;;0.73;42.48;100865.44;10422820;28;20238;-73
2024/01/20 21:00:55;;;;;;;34.20;21.67;;;;;;;0.19;43.53;100844.97;10422922;28;20242;-72
2024/01/20 21:05:57;;;;;;;32.93;21.90;;;;;;;0.43;44.06;100703.09;10417587;28;20236;-71
2024/01/20 21:10:58;;;;;;;33.57;20.40;;;;;;;-1.68;45.30;101149.16;10423455;28;20282;-73
2024/01/20 21:16:00;;;;;;;35.80;22.13;;;;;;;-2.95;48.36;101111.03;10418680;28;20234;-70
2024/01/20 21:21:01;;;;;;;39.27;23.60;;;;;;;-2.55;46.79;101143.41;10419382;28;20235;-67
2024/01/20 21:26:03;;;;;;;38.20;21.80;;;;;;;-1.56;45.93;100899.19;10418804;28;20250;-71
2024/01/20 21:31:06;;;;;;;35.07;23.03;;;;;;;-1.77;46.51;100908.13;10421639;28;20687;-71
2024/01/20 21:36:12;;;;;;;34.47;21.60;;;;;;;-2.10;47.14;100961.34;10412612;28;20680;-72
2024/01/20 21:41:14;;;;;;;33.27;22.23;;;;;;;-2.54;47.72;101003.56;10418638;28;20226;-75
2024/01/20 21:46:15;;;;;;;36.00;22.33;;;;;;;-2.30;48.47;100832.00;10411114;28;20231;-70
2024/01/20 21:51:17;;;;;;;35.07;23.63;;;;;;;-1.25;46.04;100716.34;10418796;28;20564;-74
2024/01/20 21:56:19;;;;;;;33.87;21.70;;;;;;;-2.00;46.47;100967.84;10421052;28;20339;-71
2024/01/20 22:01:20;;;;;;;36.00;21.87;;;;;;;-1.29;47.35;100696.47;10419348;28;20243;-73
2024/01/20 22:06:22;;;;;;;38.33;23.50;;;;;;;-1.99;47.20;100879.47;10412927;28;20243;-73
2024/01/20 22:11:24;;;;;;;34.90;22.27;;;;;;;-1.04;44.92;100885.09;10415044;28;20227;-75
2024/01/20 22:16:26;;;;;;;37.60;21.97;;;;;;;-0.41;45.94;100593.34;10420362;28;20336;-70
2024/01/20 22:21:27;;;;;;;37.33;22.50;;;;;;;1.16;43.10;100596.50;10420490;28;20237;-77
2024/01/20 22:26:29;;;;;;;43.80;25.60;;;;;;;-0.18;43.16;100997.94;10420300;28;20254;-70
2024/01/20 22:31:31;;;;;;;45.20;25.27;;;;;;;-0.22;44.81;100883.28;10412191;28;20260;-74
2024/01/20 22:36:32;;;;;;;43.37;26.30;;;;;;;-0.06;44.77;100865.69;10414214;28;20597;-76
2024/01/20 22:41:34;;;;;;;43.00;24.43;;;;;;;-1.88;47.07;101110.72;10411929;28;20243;-77
2024/01/20 22:46:36;;;;;;;42.33;23.50;;;;;;;-1.06;46.32;100849.31;10413346;28;20269;-75
2024/01/20 22:51:37;;;;;;;45.50;24.03;;;;;;;-0.12;45.36;100705.53;10416243;28;20734;-74